sensor_id;sensor_type;location;lat;lon;timestamp;P1;durP1;ratioP1;P2;durP2;ratioP2
34765;SDS011;20984;43.508;1.504;2023-05-23T00:01:20;10.35;;;7.53;;
34765;SDS011;20984;43.508;1.504;2023-05-23T00:03:46;9.40;;;7.63;;
34765;SDS011;20984;43.508;1.504;2023-05-23T00:06:13;10.27;;;7.32;;
34765;SDS011;20984;43.508;1.504;2023-05-23T00:08:39;12.43;;;8.25;;
34765;SDS011;20984;43.508;1.504;2023-05-23T00:11:04;9.50;;;8.40;;
34765;SDS011;20984;43.508;1.504;2023-05-23T00:13:30;9.80;;;7.55;;
34765;SDS011;20984;43.508;1.504;2023-05-23T00:15:58;8.38;;;6.97;;
34765;SDS011;20984;43.508;1.504;2023-05-23T00:18:24;10.82;;;7.93;;
34765;SDS011;20984;43.508;1.504;2023-05-23T00:20:50;9.00;;;7.78;;
34765;SDS011;20984;43.508;1.504;2023-05-23T00:23:16;11.57;;;7.95;;
34765;SDS011;20984;43.508;1.504;2023-05-23T00:25:46;11.85;;;7.90;;
34765;SDS011;20984;43.508;1.504;2023-05-23T00:28:16;12.50;;;8.52;;
34765;SDS011;20984;43.508;1.504;2023-05-23T00:30:43;9.77;;;7.22;;
34765;SDS011;20984;43.508;1.504;2023-05-23T00:33:09;12.65;;;7.93;;
34765;SDS011;20984;43.508;1.504;2023-05-23T00:35:34;8.70;;;6.93;;
34765;SDS011;20984;43.508;1.504;2023-05-23T00:38:00;9.27;;;7.50;;
34765;SDS011;20984;43.508;1.504;2023-05-23T00:40:26;10.45;;;7.80;;
34765;SDS011;20984;43.508;1.504;2023-05-23T00:42:52;8.73;;;7.75;;
34765;SDS011;20984;43.508;1.504;2023-05-23T00:45:17;11.45;;;7.30;;
34765;SDS011;20984;43.508;1.504;2023-05-23T00:47:43;13.77;;;7.65;;
34765;SDS011;20984;43.508;1.504;2023-05-23T00:50:11;9.13;;;7.55;;
34765;SDS011;20984;43.508;1.504;2023-05-23T00:52:38;8.80;;;7.03;;
34765;SDS011;20984;43.508;1.504;2023-05-23T00:55:06;9.73;;;7.63;;
34765;SDS011;20984;43.508;1.504;2023-05-23T00:57:32;7.03;;;6.32;;
34765;SDS011;20984;43.508;1.504;2023-05-23T01:00:01;9.07;;;7.57;;
34765;SDS011;20984;43.508;1.504;2023-05-23T01:02:28;7.72;;;6.65;;
34765;SDS011;20984;43.508;1.504;2023-05-23T01:04:57;11.18;;;7.65;;
34765;SDS011;20984;43.508;1.504;2023-05-23T01:07:23;10.73;;;8.93;;
34765;SDS011;20984;43.508;1.504;2023-05-23T01:09:49;9.82;;;8.43;;
34765;SDS011;20984;43.508;1.504;2023-05-23T01:12:19;8.52;;;7.10;;
34765;SDS011;20984;43.508;1.504;2023-05-23T01:15:03;11.77;;;7.45;;
34765;SDS011;20984;43.508;1.504;2023-05-23T01:20:18;11.60;;;8.07;;
34765;SDS011;20984;43.508;1.504;2023-05-23T01:28:31;8.63;;;7.72;;
34765;SDS011;20984;43.508;1.504;2023-05-23T01:31:04;11.20;;;8.55;;
34765;SDS011;20984;43.508;1.504;2023-05-23T01:33:34;11.10;;;8.77;;
34765;SDS011;20984;43.508;1.504;2023-05-23T01:36:01;9.85;;;8.15;;
34765;SDS011;20984;43.508;1.504;2023-05-23T01:38:28;11.98;;;7.47;;
34765;SDS011;20984;43.508;1.504;2023-05-23T01:40:53;9.15;;;7.78;;
34765;SDS011;20984;43.508;1.504;2023-05-23T01:43:19;11.60;;;7.97;;
34765;SDS011;20984;43.508;1.504;2023-05-23T01:45:46;11.23;;;8.05;;
34765;SDS011;20984;43.508;1.504;2023-05-23T01:48:13;9.77;;;7.50;;
34765;SDS011;20984;43.508;1.504;2023-05-23T01:50:41;10.00;;;8.20;;
34765;SDS011;20984;43.508;1.504;2023-05-23T01:53:11;9.20;;;8.18;;
34765;SDS011;20984;43.508;1.504;2023-05-23T01:55:40;10.70;;;8.77;;
34765;SDS011;20984;43.508;1.504;2023-05-23T01:58:06;10.98;;;8.73;;
34765;SDS011;20984;43.508;1.504;2023-05-23T02:00:32;15.70;;;8.52;;
34765;SDS011;20984;43.508;1.504;2023-05-23T02:02:58;10.32;;;8.98;;
34765;SDS011;20984;43.508;1.504;2023-05-23T02:05:24;11.88;;;9.07;;
34765;SDS011;20984;43.508;1.504;2023-05-23T02:07:51;12.68;;;9.27;;
34765;SDS011;20984;43.508;1.504;2023-05-23T02:10:17;11.63;;;8.15;;
34765;SDS011;20984;43.508;1.504;2023-05-23T02:12:43;16.33;;;10.77;;
34765;SDS011;20984;43.508;1.504;2023-05-23T02:15:09;12.57;;;10.50;;
34765;SDS011;20984;43.508;1.504;2023-05-23T02:17:35;13.73;;;9.48;;
34765;SDS011;20984;43.508;1.504;2023-05-23T02:20:02;10.95;;;9.57;;
34765;SDS011;20984;43.508;1.504;2023-05-23T02:22:30;13.02;;;11.00;;
34765;SDS011;20984;43.508;1.504;2023-05-23T02:24:56;16.88;;;11.85;;
34765;SDS011;20984;43.508;1.504;2023-05-23T02:27:22;13.40;;;11.77;;
34765;SDS011;20984;43.508;1.504;2023-05-23T02:29:47;17.15;;;11.57;;
34765;SDS011;20984;43.508;1.504;2023-05-23T02:32:13;15.20;;;11.05;;
34765;SDS011;20984;43.508;1.504;2023-05-23T02:34:39;14.52;;;11.48;;
34765;SDS011;20984;43.508;1.504;2023-05-23T02:37:05;16.58;;;12.75;;
34765;SDS011;20984;43.508;1.504;2023-05-23T02:39:31;16.63;;;13.40;;
34765;SDS011;20984;43.508;1.504;2023-05-23T02:41:58;15.50;;;11.07;;
34765;SDS011;20984;43.508;1.504;2023-05-23T02:44:24;13.05;;;11.13;;
34765;SDS011;20984;43.508;1.504;2023-05-23T02:46:50;16.15;;;12.05;;
34765;SDS011;20984;43.508;1.504;2023-05-23T02:49:15;18.85;;;11.95;;
34765;SDS011;20984;43.508;1.504;2023-05-23T02:51:41;13.80;;;11.38;;
34765;SDS011;20984;43.508;1.504;2023-05-23T02:54:07;15.75;;;12.15;;
34765;SDS011;20984;43.508;1.504;2023-05-23T02:56:32;13.73;;;11.40;;
34765;SDS011;20984;43.508;1.504;2023-05-23T02:58:58;15.80;;;11.20;;
34765;SDS011;20984;43.508;1.504;2023-05-23T03:01:23;13.77;;;12.23;;
34765;SDS011;20984;43.508;1.504;2023-05-23T03:03:49;14.25;;;11.45;;
34765;SDS011;20984;43.508;1.504;2023-05-23T03:06:15;15.50;;;11.35;;
34765;SDS011;20984;43.508;1.504;2023-05-23T03:08:41;14.63;;;12.00;;
34765;SDS011;20984;43.508;1.504;2023-05-23T03:11:07;14.77;;;11.75;;
34765;SDS011;20984;43.508;1.504;2023-05-23T03:13:33;14.75;;;11.63;;
34765;SDS011;20984;43.508;1.504;2023-05-23T03:15:59;15.20;;;11.48;;
34765;SDS011;20984;43.508;1.504;2023-05-23T03:18:25;14.95;;;11.70;;
34765;SDS011;20984;43.508;1.504;2023-05-23T03:20:51;13.73;;;11.40;;
34765;SDS011;20984;43.508;1.504;2023-05-23T03:23:17;15.88;;;12.05;;
34765;SDS011;20984;43.508;1.504;2023-05-23T03:25:43;16.60;;;11.95;;
34765;SDS011;20984;43.508;1.504;2023-05-23T03:28:08;20.88;;;12.20;;
34765;SDS011;20984;43.508;1.504;2023-05-23T03:30:36;16.77;;;11.88;;
34765;SDS011;20984;43.508;1.504;2023-05-23T03:33:02;13.10;;;11.73;;
34765;SDS011;20984;43.508;1.504;2023-05-23T03:35:28;13.98;;;11.18;;
34765;SDS011;20984;43.508;1.504;2023-05-23T03:37:54;15.77;;;11.85;;
34765;SDS011;20984;43.508;1.504;2023-05-23T03:40:20;16.80;;;12.85;;
34765;SDS011;20984;43.508;1.504;2023-05-23T03:42:47;19.17;;;12.70;;
34765;SDS011;20984;43.508;1.504;2023-05-23T03:45:13;18.20;;;12.48;;
34765;SDS011;20984;43.508;1.504;2023-05-23T03:47:39;14.20;;;11.85;;
34765;SDS011;20984;43.508;1.504;2023-05-23T03:50:05;16.88;;;11.85;;
34765;SDS011;20984;43.508;1.504;2023-05-23T03:52:31;14.60;;;10.63;;
34765;SDS011;20984;43.508;1.504;2023-05-23T03:54:56;16.35;;;12.05;;
34765;SDS011;20984;43.508;1.504;2023-05-23T03:57:22;16.33;;;11.88;;
34765;SDS011;20984;43.508;1.504;2023-05-23T03:59:48;16.17;;;12.05;;
34765;SDS011;20984;43.508;1.504;2023-05-23T04:02:14;12.23;;;10.20;;
34765;SDS011;20984;43.508;1.504;2023-05-23T04:04:40;13.80;;;11.63;;
34765;SDS011;20984;43.508;1.504;2023-05-23T04:07:06;17.13;;;11.27;;
34765;SDS011;20984;43.508;1.504;2023-05-23T04:09:33;15.70;;;12.75;;
34765;SDS011;20984;43.508;1.504;2023-05-23T04:11:58;15.27;;;12.07;;
34765;SDS011;20984;43.508;1.504;2023-05-23T04:14:24;14.13;;;11.68;;
34765;SDS011;20984;43.508;1.504;2023-05-23T04:16:50;12.48;;;11.05;;
34765;SDS011;20984;43.508;1.504;2023-05-23T04:19:15;16.38;;;12.95;;
34765;SDS011;20984;43.508;1.504;2023-05-23T04:21:41;14.68;;;11.25;;
34765;SDS011;20984;43.508;1.504;2023-05-23T04:24:07;13.15;;;11.23;;
34765;SDS011;20984;43.508;1.504;2023-05-23T04:26:32;16.17;;;11.52;;
34765;SDS011;20984;43.508;1.504;2023-05-23T04:29:00;16.20;;;11.40;;
34765;SDS011;20984;43.508;1.504;2023-05-23T04:31:26;15.13;;;10.98;;
34765;SDS011;20984;43.508;1.504;2023-05-23T04:33:52;12.23;;;10.68;;
34765;SDS011;20984;43.508;1.504;2023-05-23T04:36:17;12.95;;;11.35;;
34765;SDS011;20984;43.508;1.504;2023-05-23T04:38:43;14.57;;;10.38;;
34765;SDS011;20984;43.508;1.504;2023-05-23T04:41:09;12.15;;;10.38;;
34765;SDS011;20984;43.508;1.504;2023-05-23T04:43:34;12.95;;;10.20;;
34765;SDS011;20984;43.508;1.504;2023-05-23T04:46:06;12.57;;;10.45;;
34765;SDS011;20984;43.508;1.504;2023-05-23T04:48:34;15.70;;;11.52;;
34765;SDS011;20984;43.508;1.504;2023-05-23T04:51:01;12.88;;;10.70;;
34765;SDS011;20984;43.508;1.504;2023-05-23T04:53:35;13.55;;;10.52;;
34765;SDS011;20984;43.508;1.504;2023-05-23T04:56:01;15.48;;;11.57;;
34765;SDS011;20984;43.508;1.504;2023-05-23T04:58:27;13.07;;;11.52;;
34765;SDS011;20984;43.508;1.504;2023-05-23T05:00:52;20.10;;;11.52;;
34765;SDS011;20984;43.508;1.504;2023-05-23T05:03:18;15.60;;;12.43;;
34765;SDS011;20984;43.508;1.504;2023-05-23T05:05:44;23.40;;;11.90;;
34765;SDS011;20984;43.508;1.504;2023-05-23T05:08:09;20.58;;;12.93;;
34765;SDS011;20984;43.508;1.504;2023-05-23T05:10:35;15.85;;;11.45;;
34765;SDS011;20984;43.508;1.504;2023-05-23T05:13:02;18.13;;;12.20;;
34765;SDS011;20984;43.508;1.504;2023-05-23T05:15:27;15.45;;;12.73;;
34765;SDS011;20984;43.508;1.504;2023-05-23T05:17:53;13.82;;;11.77;;
34765;SDS011;20984;43.508;1.504;2023-05-23T05:20:19;15.15;;;12.48;;
34765;SDS011;20984;43.508;1.504;2023-05-23T05:22:45;15.23;;;12.18;;
34765;SDS011;20984;43.508;1.504;2023-05-23T05:25:11;19.05;;;12.82;;
34765;SDS011;20984;43.508;1.504;2023-05-23T05:27:38;15.13;;;12.15;;
34765;SDS011;20984;43.508;1.504;2023-05-23T05:30:07;16.33;;;11.90;;
34765;SDS011;20984;43.508;1.504;2023-05-23T05:32:33;15.07;;;12.27;;
34765;SDS011;20984;43.508;1.504;2023-05-23T05:34:59;20.35;;;13.23;;
34765;SDS011;20984;43.508;1.504;2023-05-23T05:37:25;18.05;;;13.35;;
34765;SDS011;20984;43.508;1.504;2023-05-23T05:39:51;18.88;;;13.30;;
34765;SDS011;20984;43.508;1.504;2023-05-23T05:42:18;15.93;;;12.00;;
34765;SDS011;20984;43.508;1.504;2023-05-23T05:44:45;15.60;;;13.20;;
34765;SDS011;20984;43.508;1.504;2023-05-23T05:47:11;17.63;;;12.82;;
34765;SDS011;20984;43.508;1.504;2023-05-23T05:49:37;20.73;;;13.82;;
34765;SDS011;20984;43.508;1.504;2023-05-23T05:52:03;16.77;;;13.07;;
34765;SDS011;20984;43.508;1.504;2023-05-23T05:54:30;16.60;;;12.25;;
34765;SDS011;20984;43.508;1.504;2023-05-23T05:56:56;14.05;;;12.48;;
34765;SDS011;20984;43.508;1.504;2023-05-23T05:59:22;19.90;;;14.65;;
34765;SDS011;20984;43.508;1.504;2023-05-23T06:01:47;16.83;;;13.80;;
34765;SDS011;20984;43.508;1.504;2023-05-23T06:04:15;19.33;;;14.60;;
34765;SDS011;20984;43.508;1.504;2023-05-23T06:06:41;17.83;;;14.50;;
34765;SDS011;20984;43.508;1.504;2023-05-23T06:09:07;17.83;;;14.07;;
34765;SDS011;20984;43.508;1.504;2023-05-23T06:11:32;23.17;;;14.73;;
34765;SDS011;20984;43.508;1.504;2023-05-23T06:13:58;20.10;;;14.27;;
34765;SDS011;20984;43.508;1.504;2023-05-23T06:16:24;18.35;;;15.07;;
34765;SDS011;20984;43.508;1.504;2023-05-23T06:18:49;21.60;;;15.15;;
34765;SDS011;20984;43.508;1.504;2023-05-23T06:21:15;20.77;;;15.35;;
34765;SDS011;20984;43.508;1.504;2023-05-23T06:23:40;23.83;;;15.88;;
34765;SDS011;20984;43.508;1.504;2023-05-23T06:26:06;21.60;;;15.77;;
34765;SDS011;20984;43.508;1.504;2023-05-23T06:28:35;20.85;;;15.27;;
34765;SDS011;20984;43.508;1.504;2023-05-23T06:31:06;22.25;;;15.70;;
34765;SDS011;20984;43.508;1.504;2023-05-23T06:33:34;18.35;;;14.98;;
34765;SDS011;20984;43.508;1.504;2023-05-23T06:36:00;20.63;;;14.90;;
34765;SDS011;20984;43.508;1.504;2023-05-23T06:38:28;21.00;;;14.52;;
34765;SDS011;20984;43.508;1.504;2023-05-23T06:40:57;19.05;;;15.27;;
34765;SDS011;20984;43.508;1.504;2023-05-23T06:43:23;17.42;;;14.00;;
34765;SDS011;20984;43.508;1.504;2023-05-23T06:45:48;17.05;;;14.00;;
34765;SDS011;20984;43.508;1.504;2023-05-23T06:48:14;21.33;;;14.02;;
34765;SDS011;20984;43.508;1.504;2023-05-23T06:50:40;21.20;;;14.20;;
34765;SDS011;20984;43.508;1.504;2023-05-23T06:53:06;17.67;;;13.40;;
34765;SDS011;20984;43.508;1.504;2023-05-23T06:55:32;16.27;;;13.30;;
34765;SDS011;20984;43.508;1.504;2023-05-23T06:58:00;16.80;;;12.85;;
34765;SDS011;20984;43.508;1.504;2023-05-23T07:00:28;17.88;;;12.88;;
34765;SDS011;20984;43.508;1.504;2023-05-23T07:02:55;16.58;;;12.65;;
34765;SDS011;20984;43.508;1.504;2023-05-23T07:05:25;12.70;;;10.88;;
34765;SDS011;20984;43.508;1.504;2023-05-23T07:07:51;15.60;;;11.77;;
34765;SDS011;20984;43.508;1.504;2023-05-23T07:10:17;17.10;;;10.88;;
34765;SDS011;20984;43.508;1.504;2023-05-23T07:12:43;12.40;;;10.55;;
34765;SDS011;20984;43.508;1.504;2023-05-23T07:15:10;12.68;;;10.73;;
34765;SDS011;20984;43.508;1.504;2023-05-23T07:17:36;14.25;;;11.05;;
34765;SDS011;20984;43.508;1.504;2023-05-23T07:20:02;12.23;;;10.50;;
34765;SDS011;20984;43.508;1.504;2023-05-23T07:22:28;15.07;;;10.45;;
34765;SDS011;20984;43.508;1.504;2023-05-23T07:24:55;15.35;;;10.65;;
34765;SDS011;20984;43.508;1.504;2023-05-23T07:27:21;17.33;;;10.73;;
34765;SDS011;20984;43.508;1.504;2023-05-23T07:29:46;14.00;;;11.07;;
34765;SDS011;20984;43.508;1.504;2023-05-23T07:32:12;14.13;;;9.57;;
34765;SDS011;20984;43.508;1.504;2023-05-23T07:34:38;10.52;;;9.40;;
34765;SDS011;20984;43.508;1.504;2023-05-23T07:37:05;11.00;;;9.38;;
34765;SDS011;20984;43.508;1.504;2023-05-23T07:39:30;11.73;;;9.35;;
34765;SDS011;20984;43.508;1.504;2023-05-23T07:41:56;14.15;;;10.38;;
34765;SDS011;20984;43.508;1.504;2023-05-23T07:44:22;11.43;;;9.05;;
34765;SDS011;20984;43.508;1.504;2023-05-23T07:46:47;11.55;;;10.15;;
34765;SDS011;20984;43.508;1.504;2023-05-23T07:49:13;13.80;;;10.05;;
34765;SDS011;20984;43.508;1.504;2023-05-23T07:51:39;13.35;;;9.88;;
34765;SDS011;20984;43.508;1.504;2023-05-23T07:54:05;13.10;;;9.63;;
34765;SDS011;20984;43.508;1.504;2023-05-23T07:56:31;10.88;;;9.77;;
34765;SDS011;20984;43.508;1.504;2023-05-23T07:58:57;11.52;;;9.20;;
34765;SDS011;20984;43.508;1.504;2023-05-23T08:01:22;12.00;;;9.20;;
34765;SDS011;20984;43.508;1.504;2023-05-23T08:03:49;9.93;;;8.70;;
34765;SDS011;20984;43.508;1.504;2023-05-23T08:06:15;11.35;;;8.43;;
34765;SDS011;20984;43.508;1.504;2023-05-23T08:08:40;11.40;;;8.48;;
34765;SDS011;20984;43.508;1.504;2023-05-23T08:11:07;11.65;;;8.73;;
34765;SDS011;20984;43.508;1.504;2023-05-23T08:13:33;10.63;;;8.15;;
34765;SDS011;20984;43.508;1.504;2023-05-23T08:15:59;12.52;;;8.55;;
34765;SDS011;20984;43.508;1.504;2023-05-23T08:18:25;9.52;;;8.18;;
34765;SDS011;20984;43.508;1.504;2023-05-23T08:20:51;10.15;;;8.13;;
34765;SDS011;20984;43.508;1.504;2023-05-23T08:23:17;11.05;;;7.93;;
34765;SDS011;20984;43.508;1.504;2023-05-23T08:25:43;10.55;;;7.88;;
34765;SDS011;20984;43.508;1.504;2023-05-23T08:28:09;8.93;;;7.63;;
34765;SDS011;20984;43.508;1.504;2023-05-23T08:30:35;10.88;;;7.47;;
34765;SDS011;20984;43.508;1.504;2023-05-23T08:33:00;9.80;;;8.02;;
34765;SDS011;20984;43.508;1.504;2023-05-23T08:35:28;10.25;;;8.25;;
34765;SDS011;20984;43.508;1.504;2023-05-23T08:37:59;10.20;;;7.35;;
34765;SDS011;20984;43.508;1.504;2023-05-23T08:40:25;9.50;;;8.02;;
34765;SDS011;20984;43.508;1.504;2023-05-23T08:42:53;10.13;;;7.30;;
34765;SDS011;20984;43.508;1.504;2023-05-23T08:45:19;8.65;;;7.20;;
34765;SDS011;20984;43.508;1.504;2023-05-23T08:47:46;9.70;;;6.68;;
34765;SDS011;20984;43.508;1.504;2023-05-23T08:50:12;8.15;;;6.32;;
34765;SDS011;20984;43.508;1.504;2023-05-23T08:52:42;8.45;;;7.00;;
34765;SDS011;20984;43.508;1.504;2023-05-23T08:55:29;10.43;;;7.82;;
34765;SDS011;20984;43.508;1.504;2023-05-23T08:57:55;8.30;;;6.40;;
34765;SDS011;20984;43.508;1.504;2023-05-23T09:00:24;7.70;;;6.75;;
34765;SDS011;20984;43.508;1.504;2023-05-23T09:02:51;8.00;;;5.63;;
34765;SDS011;20984;43.508;1.504;2023-05-23T09:05:18;9.60;;;7.25;;
34765;SDS011;20984;43.508;1.504;2023-05-23T09:07:44;7.93;;;6.30;;
34765;SDS011;20984;43.508;1.504;2023-05-23T09:10:15;7.63;;;6.28;;
34765;SDS011;20984;43.508;1.504;2023-05-23T09:12:46;8.13;;;6.60;;
34765;SDS011;20984;43.508;1.504;2023-05-23T09:15:12;9.07;;;7.10;;
34765;SDS011;20984;43.508;1.504;2023-05-23T09:17:38;10.60;;;7.05;;
34765;SDS011;20984;43.508;1.504;2023-05-23T09:20:11;7.70;;;6.70;;
34765;SDS011;20984;43.508;1.504;2023-05-23T09:22:38;8.50;;;6.95;;
34765;SDS011;20984;43.508;1.504;2023-05-23T09:25:05;10.05;;;6.75;;
34765;SDS011;20984;43.508;1.504;2023-05-23T09:27:31;9.18;;;6.55;;
34765;SDS011;20984;43.508;1.504;2023-05-23T09:29:57;12.48;;;6.82;;
34765;SDS011;20984;43.508;1.504;2023-05-23T09:32:36;9.80;;;7.15;;
34765;SDS011;20984;43.508;1.504;2023-05-23T09:35:02;7.82;;;6.78;;
34765;SDS011;20984;43.508;1.504;2023-05-23T09:37:39;7.60;;;6.80;;
34765;SDS011;20984;43.508;1.504;2023-05-23T09:40:10;8.23;;;7.25;;
34765;SDS011;20984;43.508;1.504;2023-05-23T09:42:41;6.35;;;5.75;;
34765;SDS011;20984;43.508;1.504;2023-05-23T09:45:08;10.48;;;6.22;;
34765;SDS011;20984;43.508;1.504;2023-05-23T09:47:34;7.63;;;6.68;;
34765;SDS011;20984;43.508;1.504;2023-05-23T09:50:00;11.05;;;6.78;;
34765;SDS011;20984;43.508;1.504;2023-05-23T09:52:26;10.48;;;6.50;;
34765;SDS011;20984;43.508;1.504;2023-05-23T09:54:52;9.10;;;6.22;;
34765;SDS011;20984;43.508;1.504;2023-05-23T09:57:18;7.03;;;5.70;;
34765;SDS011;20984;43.508;1.504;2023-05-23T09:59:53;8.32;;;5.35;;
34765;SDS011;20984;43.508;1.504;2023-05-23T10:02:41;8.95;;;5.90;;
34765;SDS011;20984;43.508;1.504;2023-05-23T10:05:55;7.93;;;5.53;;
34765;SDS011;20984;43.508;1.504;2023-05-23T10:13:24;28.23;;;10.73;;
34765;SDS011;20984;43.508;1.504;2023-05-23T10:16:14;26.45;;;9.82;;
34765;SDS011;20984;43.508;1.504;2023-05-23T10:18:46;70.72;;;20.95;;
34765;SDS011;20984;43.508;1.504;2023-05-23T10:21:16;11.90;;;6.88;;
34765;SDS011;20984;43.508;1.504;2023-05-23T10:23:45;8.32;;;5.18;;
34765;SDS011;20984;43.508;1.504;2023-05-23T10:26:12;7.93;;;5.07;;
34765;SDS011;20984;43.508;1.504;2023-05-23T10:28:38;11.65;;;5.63;;
34765;SDS011;20984;43.508;1.504;2023-05-23T10:31:04;7.85;;;5.25;;
34765;SDS011;20984;43.508;1.504;2023-05-23T10:33:32;8.20;;;5.15;;
34765;SDS011;20984;43.508;1.504;2023-05-23T10:36:03;7.72;;;5.53;;
34765;SDS011;20984;43.508;1.504;2023-05-23T10:43:56;7.28;;;5.65;;
34765;SDS011;20984;43.508;1.504;2023-05-23T10:46:53;6.82;;;5.05;;
34765;SDS011;20984;43.508;1.504;2023-05-23T10:49:29;6.22;;;4.70;;
34765;SDS011;20984;43.508;1.504;2023-05-23T10:52:02;7.72;;;6.05;;
34765;SDS011;20984;43.508;1.504;2023-05-23T10:54:33;8.65;;;5.50;;
34765;SDS011;20984;43.508;1.504;2023-05-23T10:57:10;5.38;;;4.50;;
34765;SDS011;20984;43.508;1.504;2023-05-23T10:59:40;6.25;;;4.80;;
34765;SDS011;20984;43.508;1.504;2023-05-23T11:02:11;6.65;;;4.70;;
34765;SDS011;20984;43.508;1.504;2023-05-23T11:04:41;8.27;;;5.00;;
34765;SDS011;20984;43.508;1.504;2023-05-23T11:10:03;4.82;;;4.25;;
34765;SDS011;20984;43.508;1.504;2023-05-23T11:12:35;6.63;;;4.65;;
34765;SDS011;20984;43.508;1.504;2023-05-23T11:15:06;4.75;;;4.05;;
34765;SDS011;20984;43.508;1.504;2023-05-23T11:17:53;5.78;;;4.55;;
34765;SDS011;20984;43.508;1.504;2023-05-23T11:20:21;6.45;;;4.65;;
34765;SDS011;20984;43.508;1.504;2023-05-23T11:22:57;7.07;;;4.82;;
34765;SDS011;20984;43.508;1.504;2023-05-23T11:25:38;8.27;;;4.90;;
34765;SDS011;20984;43.508;1.504;2023-05-23T11:28:08;7.32;;;4.80;;
34765;SDS011;20984;43.508;1.504;2023-05-23T11:30:35;5.10;;;4.00;;
34765;SDS011;20984;43.508;1.504;2023-05-23T11:33:13;4.97;;;3.83;;
34765;SDS011;20984;43.508;1.504;2023-05-23T11:38:10;4.65;;;3.97;;
34765;SDS011;20984;43.508;1.504;2023-05-23T11:40:36;6.82;;;4.95;;
34765;SDS011;20984;43.508;1.504;2023-05-23T11:43:07;6.63;;;4.30;;
34765;SDS011;20984;43.508;1.504;2023-05-23T11:45:34;5.28;;;4.00;;
34765;SDS011;20984;43.508;1.504;2023-05-23T11:48:05;5.03;;;3.75;;
34765;SDS011;20984;43.508;1.504;2023-05-23T11:50:31;5.32;;;4.25;;
34765;SDS011;20984;43.508;1.504;2023-05-23T11:52:58;4.65;;;4.20;;
34765;SDS011;20984;43.508;1.504;2023-05-23T11:55:24;5.40;;;4.05;;
34765;SDS011;20984;43.508;1.504;2023-05-23T11:57:50;5.03;;;4.20;;
34765;SDS011;20984;43.508;1.504;2023-05-23T12:00:16;5.63;;;4.30;;
34765;SDS011;20984;43.508;1.504;2023-05-23T12:02:43;5.47;;;4.22;;
34765;SDS011;20984;43.508;1.504;2023-05-23T12:05:10;6.03;;;4.57;;
34765;SDS011;20984;43.508;1.504;2023-05-23T12:07:41;6.25;;;4.30;;
34765;SDS011;20984;43.508;1.504;2023-05-23T12:12:34;4.90;;;4.40;;
34765;SDS011;20984;43.508;1.504;2023-05-23T12:15:01;5.68;;;4.07;;
34765;SDS011;20984;43.508;1.504;2023-05-23T12:17:26;6.13;;;4.22;;
34765;SDS011;20984;43.508;1.504;2023-05-23T12:19:52;5.72;;;4.70;;
34765;SDS011;20984;43.508;1.504;2023-05-23T12:22:21;6.13;;;4.00;;
34765;SDS011;20984;43.508;1.504;2023-05-23T12:24:54;4.30;;;3.08;;
34765;SDS011;20984;43.508;1.504;2023-05-23T12:27:27;4.63;;;3.63;;
34765;SDS011;20984;43.508;1.504;2023-05-23T12:30:03;5.30;;;3.40;;
34765;SDS011;20984;43.508;1.504;2023-05-23T12:32:41;4.32;;;3.50;;
34765;SDS011;20984;43.508;1.504;2023-05-23T12:35:09;5.57;;;3.92;;
34765;SDS011;20984;43.508;1.504;2023-05-23T12:37:39;5.55;;;4.20;;
34765;SDS011;20984;43.508;1.504;2023-05-23T12:40:13;5.75;;;4.05;;
34765;SDS011;20984;43.508;1.504;2023-05-23T12:42:49;5.90;;;4.45;;
34765;SDS011;20984;43.508;1.504;2023-05-23T12:45:20;5.13;;;3.80;;
34765;SDS011;20984;43.508;1.504;2023-05-23T12:47:47;4.35;;;3.60;;
34765;SDS011;20984;43.508;1.504;2023-05-23T12:50:13;5.43;;;4.15;;
34765;SDS011;20984;43.508;1.504;2023-05-23T12:52:38;5.43;;;3.70;;
34765;SDS011;20984;43.508;1.504;2023-05-23T12:55:05;9.63;;;3.80;;
34765;SDS011;20984;43.508;1.504;2023-05-23T12:57:34;5.57;;;3.75;;
34765;SDS011;20984;43.508;1.504;2023-05-23T13:00:00;6.35;;;3.88;;
34765;SDS011;20984;43.508;1.504;2023-05-23T13:02:26;10.00;;;4.25;;
34765;SDS011;20984;43.508;1.504;2023-05-23T13:04:53;4.75;;;3.35;;
34765;SDS011;20984;43.508;1.504;2023-05-23T13:07:18;6.03;;;3.70;;
34765;SDS011;20984;43.508;1.504;2023-05-23T13:09:44;4.20;;;3.70;;
34765;SDS011;20984;43.508;1.504;2023-05-23T13:12:10;4.90;;;3.50;;
34765;SDS011;20984;43.508;1.504;2023-05-23T13:14:36;5.43;;;3.35;;
34765;SDS011;20984;43.508;1.504;2023-05-23T13:17:02;4.30;;;3.47;;
34765;SDS011;20984;43.508;1.504;2023-05-23T13:19:28;5.00;;;4.45;;
34765;SDS011;20984;43.508;1.504;2023-05-23T13:21:53;4.80;;;3.83;;
34765;SDS011;20984;43.508;1.504;2023-05-23T13:24:19;4.18;;;3.25;;
34765;SDS011;20984;43.508;1.504;2023-05-23T13:26:45;6.38;;;3.55;;
34765;SDS011;20984;43.508;1.504;2023-05-23T13:29:11;4.15;;;3.25;;
34765;SDS011;20984;43.508;1.504;2023-05-23T13:31:36;4.93;;;3.40;;
34765;SDS011;20984;43.508;1.504;2023-05-23T13:34:02;10.02;;;4.05;;
34765;SDS011;20984;43.508;1.504;2023-05-23T13:36:28;5.18;;;3.22;;
34765;SDS011;20984;43.508;1.504;2023-05-23T13:38:53;4.95;;;3.30;;
34765;SDS011;20984;43.508;1.504;2023-05-23T13:41:19;3.40;;;3.08;;
34765;SDS011;20984;43.508;1.504;2023-05-23T13:43:45;3.88;;;3.20;;
34765;SDS011;20984;43.508;1.504;2023-05-23T13:46:11;4.30;;;3.53;;
34765;SDS011;20984;43.508;1.504;2023-05-23T13:48:37;4.63;;;2.83;;
34765;SDS011;20984;43.508;1.504;2023-05-23T13:51:03;5.10;;;3.25;;
34765;SDS011;20984;43.508;1.504;2023-05-23T13:53:29;3.42;;;2.60;;
34765;SDS011;20984;43.508;1.504;2023-05-23T13:55:55;4.25;;;3.45;;
34765;SDS011;20984;43.508;1.504;2023-05-23T13:58:21;4.65;;;3.35;;
34765;SDS011;20984;43.508;1.504;2023-05-23T14:00:46;6.57;;;3.60;;
34765;SDS011;20984;43.508;1.504;2023-05-23T14:03:12;5.22;;;3.53;;
34765;SDS011;20984;43.508;1.504;2023-05-23T14:05:39;4.47;;;3.58;;
34765;SDS011;20984;43.508;1.504;2023-05-23T14:08:05;4.68;;;3.05;;
34765;SDS011;20984;43.508;1.504;2023-05-23T14:10:31;4.78;;;3.40;;
34765;SDS011;20984;43.508;1.504;2023-05-23T14:12:59;4.03;;;2.90;;
34765;SDS011;20984;43.508;1.504;2023-05-23T14:15:25;6.20;;;3.55;;
34765;SDS011;20984;43.508;1.504;2023-05-23T14:17:52;4.20;;;3.00;;
34765;SDS011;20984;43.508;1.504;2023-05-23T14:20:22;4.65;;;3.45;;
34765;SDS011;20984;43.508;1.504;2023-05-23T14:22:48;6.75;;;3.15;;
34765;SDS011;20984;43.508;1.504;2023-05-23T14:25:14;4.30;;;2.88;;
34765;SDS011;20984;43.508;1.504;2023-05-23T14:27:41;3.92;;;3.15;;
34765;SDS011;20984;43.508;1.504;2023-05-23T14:30:07;2.95;;;2.28;;
34765;SDS011;20984;43.508;1.504;2023-05-23T14:32:33;5.82;;;2.95;;
34765;SDS011;20984;43.508;1.504;2023-05-23T14:35:03;3.45;;;2.70;;
34765;SDS011;20984;43.508;1.504;2023-05-23T14:37:33;4.07;;;2.72;;
34765;SDS011;20984;43.508;1.504;2023-05-23T14:39:59;3.63;;;2.20;;
34765;SDS011;20984;43.508;1.504;2023-05-23T14:42:25;4.25;;;2.78;;
34765;SDS011;20984;43.508;1.504;2023-05-23T14:44:51;4.82;;;2.65;;
34765;SDS011;20984;43.508;1.504;2023-05-23T14:47:20;4.32;;;1.95;;
34765;SDS011;20984;43.508;1.504;2023-05-23T14:49:46;3.55;;;2.25;;
34765;SDS011;20984;43.508;1.504;2023-05-23T14:52:12;5.63;;;2.55;;
34765;SDS011;20984;43.508;1.504;2023-05-23T14:54:38;3.35;;;2.33;;
34765;SDS011;20984;43.508;1.504;2023-05-23T14:57:07;8.53;;;2.53;;
34765;SDS011;20984;43.508;1.504;2023-05-23T14:59:33;2.63;;;1.73;;
34765;SDS011;20984;43.508;1.504;2023-05-23T15:02:01;2.97;;;1.98;;
34765;SDS011;20984;43.508;1.504;2023-05-23T15:04:27;2.75;;;1.90;;